sensor_id;sensor_type;location;lat;lon;timestamp;P1;durP1;ratioP1;P2;durP2;ratioP2
4389;SDS011;2209;48.982;8.406;2022-12-04T00:02:19;22.70;;;13.50;;
4389;SDS011;2209;48.982;8.406;2022-12-04T00:04:42;23.40;;;13.60;;
4389;SDS011;2209;48.982;8.406;2022-12-04T00:07:05;21.73;;;14.30;;
4389;SDS011;2209;48.982;8.406;2022-12-04T00:09:27;23.10;;;13.50;;
4389;SDS011;2209;48.982;8.406;2022-12-04T00:11:49;23.10;;;14.40;;
4389;SDS011;2209;48.982;8.406;2022-12-04T00:14:12;27.57;;;15.30;;
4389;SDS011;2209;48.982;8.406;2022-12-04T00:16:34;26.30;;;14.50;;
4389;SDS011;2209;48.982;8.406;2022-12-04T00:18:56;27.23;;;15.07;;
4389;SDS011;2209;48.982;8.406;2022-12-04T00:21:19;23.00;;;15.40;;
4389;SDS011;2209;48.982;8.406;2022-12-04T00:23:43;24.67;;;14.67;;
4389;SDS011;2209;48.982;8.406;2022-12-04T00:26:10;24.30;;;15.50;;
4389;SDS011;2209;48.982;8.406;2022-12-04T00:28:35;23.33;;;13.27;;
4389;SDS011;2209;48.982;8.406;2022-12-04T00:30:57;25.20;;;14.33;;
4389;SDS011;2209;48.982;8.406;2022-12-04T00:33:20;28.43;;;15.57;;
4389;SDS011;2209;48.982;8.406;2022-12-04T00:35:42;25.27;;;16.40;;
4389;SDS011;2209;48.982;8.406;2022-12-04T00:38:04;28.80;;;15.83;;
4389;SDS011;2209;48.982;8.406;2022-12-04T00:40:27;26.00;;;15.13;;
4389;SDS011;2209;48.982;8.406;2022-12-04T00:42:49;31.73;;;16.00;;
4389;SDS011;2209;48.982;8.406;2022-12-04T00:45:11;26.57;;;14.87;;
4389;SDS011;2209;48.982;8.406;2022-12-04T00:47:33;26.27;;;14.53;;
4389;SDS011;2209;48.982;8.406;2022-12-04T00:49:56;27.33;;;14.43;;
4389;SDS011;2209;48.982;8.406;2022-12-04T00:52:18;25.63;;;14.50;;
4389;SDS011;2209;48.982;8.406;2022-12-04T00:54:40;28.97;;;14.97;;
4389;SDS011;2209;48.982;8.406;2022-12-04T00:57:04;22.33;;;13.83;;
4389;SDS011;2209;48.982;8.406;2022-12-04T00:59:26;24.03;;;14.97;;
4389;SDS011;2209;48.982;8.406;2022-12-04T01:01:48;22.67;;;14.80;;
4389;SDS011;2209;48.982;8.406;2022-12-04T01:04:10;24.00;;;15.43;;
4389;SDS011;2209;48.982;8.406;2022-12-04T01:06:32;28.83;;;15.67;;
4389;SDS011;2209;48.982;8.406;2022-12-04T01:08:55;24.30;;;14.77;;
4389;SDS011;2209;48.982;8.406;2022-12-04T01:11:19;26.57;;;16.03;;
4389;SDS011;2209;48.982;8.406;2022-12-04T01:13:43;25.90;;;16.33;;
4389;SDS011;2209;48.982;8.406;2022-12-04T01:16:06;27.87;;;16.63;;
4389;SDS011;2209;48.982;8.406;2022-12-04T01:18:28;30.67;;;16.77;;
4389;SDS011;2209;48.982;8.406;2022-12-04T01:20:51;26.70;;;15.47;;
4389;SDS011;2209;48.982;8.406;2022-12-04T01:23:13;28.73;;;16.47;;
4389;SDS011;2209;48.982;8.406;2022-12-04T01:25:35;25.13;;;14.90;;
4389;SDS011;2209;48.982;8.406;2022-12-04T01:27:57;26.17;;;16.20;;
4389;SDS011;2209;48.982;8.406;2022-12-04T01:30:21;25.57;;;15.63;;
4389;SDS011;2209;48.982;8.406;2022-12-04T01:32:43;26.17;;;15.70;;
4389;SDS011;2209;48.982;8.406;2022-12-04T01:35:05;27.87;;;15.73;;
4389;SDS011;2209;48.982;8.406;2022-12-04T01:37:28;30.43;;;16.03;;
4389;SDS011;2209;48.982;8.406;2022-12-04T01:39:51;27.73;;;14.33;;
4389;SDS011;2209;48.982;8.406;2022-12-04T01:42:13;30.50;;;16.33;;
4389;SDS011;2209;48.982;8.406;2022-12-04T01:44:35;33.17;;;15.73;;
4389;SDS011;2209;48.982;8.406;2022-12-04T01:47:00;29.67;;;15.93;;
4389;SDS011;2209;48.982;8.406;2022-12-04T01:49:23;24.80;;;15.60;;
4389;SDS011;2209;48.982;8.406;2022-12-04T01:51:50;29.33;;;15.70;;
4389;SDS011;2209;48.982;8.406;2022-12-04T01:54:17;31.00;;;16.10;;
4389;SDS011;2209;48.982;8.406;2022-12-04T01:56:48;21.93;;;14.23;;
4389;SDS011;2209;48.982;8.406;2022-12-04T01:59:13;25.93;;;15.00;;
4389;SDS011;2209;48.982;8.406;2022-12-04T02:01:41;25.17;;;15.20;;
4389;SDS011;2209;48.982;8.406;2022-12-04T02:04:10;24.27;;;14.27;;
4389;SDS011;2209;48.982;8.406;2022-12-04T02:06:33;23.93;;;15.10;;
4389;SDS011;2209;48.982;8.406;2022-12-04T02:08:55;26.80;;;15.90;;
4389;SDS011;2209;48.982;8.406;2022-12-04T02:11:21;25.53;;;14.03;;
4389;SDS011;2209;48.982;8.406;2022-12-04T02:13:51;22.50;;;13.90;;
4389;SDS011;2209;48.982;8.406;2022-12-04T02:16:23;26.97;;;14.60;;
4389;SDS011;2209;48.982;8.406;2022-12-04T02:18:54;29.33;;;16.30;;
4389;SDS011;2209;48.982;8.406;2022-12-04T02:21:25;21.90;;;13.87;;
4389;SDS011;2209;48.982;8.406;2022-12-04T02:23:54;21.37;;;14.77;;
4389;SDS011;2209;48.982;8.406;2022-12-04T02:26:35;24.13;;;14.80;;
4389;SDS011;2209;48.982;8.406;2022-12-04T02:29:07;23.93;;;14.17;;
4389;SDS011;2209;48.982;8.406;2022-12-04T02:31:33;22.87;;;14.57;;
4389;SDS011;2209;48.982;8.406;2022-12-04T02:34:01;25.57;;;16.27;;
4389;SDS011;2209;48.982;8.406;2022-12-04T02:36:28;23.40;;;13.60;;
4389;SDS011;2209;48.982;8.406;2022-12-04T02:38:55;23.30;;;14.73;;
4389;SDS011;2209;48.982;8.406;2022-12-04T02:41:24;27.30;;;14.63;;
4389;SDS011;2209;48.982;8.406;2022-12-04T02:43:53;25.40;;;15.33;;
4389;SDS011;2209;48.982;8.406;2022-12-04T02:46:20;23.87;;;13.60;;
4389;SDS011;2209;48.982;8.406;2022-12-04T02:48:48;26.07;;;14.50;;
4389;SDS011;2209;48.982;8.406;2022-12-04T02:51:14;26.57;;;15.23;;
4389;SDS011;2209;48.982;8.406;2022-12-04T02:53:40;22.30;;;13.87;;
4389;SDS011;2209;48.982;8.406;2022-12-04T02:56:15;25.37;;;14.10;;
4389;SDS011;2209;48.982;8.406;2022-12-04T02:58:41;24.30;;;14.30;;
4389;SDS011;2209;48.982;8.406;2022-12-04T03:01:08;24.63;;;13.90;;
4389;SDS011;2209;48.982;8.406;2022-12-04T03:03:41;20.80;;;13.43;;
4389;SDS011;2209;48.982;8.406;2022-12-04T03:06:03;22.13;;;15.10;;
4389;SDS011;2209;48.982;8.406;2022-12-04T03:08:29;21.37;;;12.90;;
4389;SDS011;2209;48.982;8.406;2022-12-04T03:10:56;21.97;;;12.67;;
4389;SDS011;2209;48.982;8.406;2022-12-04T03:13:21;22.17;;;12.73;;
4389;SDS011;2209;48.982;8.406;2022-12-04T03:15:49;15.80;;;11.13;;
4389;SDS011;2209;48.982;8.406;2022-12-04T03:18:18;18.53;;;12.17;;
4389;SDS011;2209;48.982;8.406;2022-12-04T03:20:49;20.43;;;12.47;;
4389;SDS011;2209;48.982;8.406;2022-12-04T03:23:17;22.53;;;12.37;;
4389;SDS011;2209;48.982;8.406;2022-12-04T03:25:44;20.30;;;12.53;;
4389;SDS011;2209;48.982;8.406;2022-12-04T03:28:12;19.00;;;12.50;;
4389;SDS011;2209;48.982;8.406;2022-12-04T03:30:42;19.60;;;12.30;;
4389;SDS011;2209;48.982;8.406;2022-12-04T03:33:11;18.57;;;11.53;;
4389;SDS011;2209;48.982;8.406;2022-12-04T03:35:38;18.43;;;12.10;;
4389;SDS011;2209;48.982;8.406;2022-12-04T03:38:05;18.50;;;10.93;;
4389;SDS011;2209;48.982;8.406;2022-12-04T03:40:37;19.60;;;12.90;;
4389;SDS011;2209;48.982;8.406;2022-12-04T03:43:03;23.93;;;13.30;;
4389;SDS011;2209;48.982;8.406;2022-12-04T03:45:30;21.43;;;13.20;;
4389;SDS011;2209;48.982;8.406;2022-12-04T03:48:00;17.00;;;11.13;;
4389;SDS011;2209;48.982;8.406;2022-12-04T03:50:29;18.63;;;12.07;;
4389;SDS011;2209;48.982;8.406;2022-12-04T03:52:57;15.10;;;11.77;;
4389;SDS011;2209;48.982;8.406;2022-12-04T03:55:25;21.93;;;12.33;;
4389;SDS011;2209;48.982;8.406;2022-12-04T03:57:50;19.43;;;13.10;;
4389;SDS011;2209;48.982;8.406;2022-12-04T04:00:18;17.70;;;12.63;;
4389;SDS011;2209;48.982;8.406;2022-12-04T04:02:42;17.93;;;11.83;;
4389;SDS011;2209;48.982;8.406;2022-12-04T04:05:09;16.63;;;11.53;;
4389;SDS011;2209;48.982;8.406;2022-12-04T04:07:34;16.77;;;11.93;;
4389;SDS011;2209;48.982;8.406;2022-12-04T04:10:03;17.57;;;12.30;;
4389;SDS011;2209;48.982;8.406;2022-12-04T04:12:34;19.67;;;12.60;;
4389;SDS011;2209;48.982;8.406;2022-12-04T04:15:02;21.30;;;12.80;;
4389;SDS011;2209;48.982;8.406;2022-12-04T04:17:46;20.57;;;12.77;;
4389;SDS011;2209;48.982;8.406;2022-12-04T04:20:42;21.43;;;12.90;;
4389;SDS011;2209;48.982;8.406;2022-12-04T04:23:26;18.87;;;12.17;;
4389;SDS011;2209;48.982;8.406;2022-12-04T04:26:10;19.17;;;12.53;;
4389;SDS011;2209;48.982;8.406;2022-12-04T04:28:36;20.20;;;13.13;;
4389;SDS011;2209;48.982;8.406;2022-12-04T04:31:03;24.30;;;12.60;;
4389;SDS011;2209;48.982;8.406;2022-12-04T04:33:28;19.53;;;12.87;;
4389;SDS011;2209;48.982;8.406;2022-12-04T04:35:54;19.10;;;11.80;;
4389;SDS011;2209;48.982;8.406;2022-12-04T04:38:23;19.17;;;13.03;;
4389;SDS011;2209;48.982;8.406;2022-12-04T04:40:50;19.50;;;13.13;;
4389;SDS011;2209;48.982;8.406;2022-12-04T04:43:19;21.40;;;12.87;;
4389;SDS011;2209;48.982;8.406;2022-12-04T04:45:48;19.27;;;11.83;;
4389;SDS011;2209;48.982;8.406;2022-12-04T04:48:15;15.67;;;11.57;;
4389;SDS011;2209;48.982;8.406;2022-12-04T04:50:41;17.83;;;12.23;;
4389;SDS011;2209;48.982;8.406;2022-12-04T04:53:05;17.00;;;11.00;;
4389;SDS011;2209;48.982;8.406;2022-12-04T04:55:30;18.87;;;12.97;;
4389;SDS011;2209;48.982;8.406;2022-12-04T04:58:04;17.13;;;11.40;;
4389;SDS011;2209;48.982;8.406;2022-12-04T05:00:26;16.23;;;10.80;;
4389;SDS011;2209;48.982;8.406;2022-12-04T05:02:50;15.07;;;11.13;;
4389;SDS011;2209;48.982;8.406;2022-12-04T05:05:12;18.60;;;12.17;;
4389;SDS011;2209;48.982;8.406;2022-12-04T05:07:35;18.00;;;11.83;;
4389;SDS011;2209;48.982;8.406;2022-12-04T05:09:57;15.43;;;11.67;;
4389;SDS011;2209;48.982;8.406;2022-12-04T05:12:19;19.07;;;11.83;;
4389;SDS011;2209;48.982;8.406;2022-12-04T05:14:41;16.47;;;10.93;;
4389;SDS011;2209;48.982;8.406;2022-12-04T05:17:04;16.07;;;11.27;;
4389;SDS011;2209;48.982;8.406;2022-12-04T05:19:30;18.03;;;11.80;;
4389;SDS011;2209;48.982;8.406;2022-12-04T05:22:10;18.17;;;11.20;;
4389;SDS011;2209;48.982;8.406;2022-12-04T05:24:33;19.83;;;12.20;;
4389;SDS011;2209;48.982;8.406;2022-12-04T05:26:55;18.33;;;11.37;;
4389;SDS011;2209;48.982;8.406;2022-12-04T05:29:17;18.07;;;11.07;;
4389;SDS011;2209;48.982;8.406;2022-12-04T05:31:39;18.57;;;11.87;;
4389;SDS011;2209;48.982;8.406;2022-12-04T05:34:01;20.50;;;12.90;;
4389;SDS011;2209;48.982;8.406;2022-12-04T05:36:24;17.50;;;10.77;;
4389;SDS011;2209;48.982;8.406;2022-12-04T05:38:47;16.00;;;11.07;;
4389;SDS011;2209;48.982;8.406;2022-12-04T05:41:09;16.53;;;11.23;;
4389;SDS011;2209;48.982;8.406;2022-12-04T05:43:31;17.90;;;12.77;;
4389;SDS011;2209;48.982;8.406;2022-12-04T05:45:53;21.03;;;11.00;;
4389;SDS011;2209;48.982;8.406;2022-12-04T05:48:16;20.37;;;12.47;;
4389;SDS011;2209;48.982;8.406;2022-12-04T05:50:38;18.90;;;12.40;;
4389;SDS011;2209;48.982;8.406;2022-12-04T05:53:01;17.77;;;11.00;;
4389;SDS011;2209;48.982;8.406;2022-12-04T05:55:23;19.67;;;11.90;;
4389;SDS011;2209;48.982;8.406;2022-12-04T05:57:45;18.03;;;11.50;;
4389;SDS011;2209;48.982;8.406;2022-12-04T06:00:08;20.27;;;11.07;;
4389;SDS011;2209;48.982;8.406;2022-12-04T06:02:32;18.00;;;10.47;;
4389;SDS011;2209;48.982;8.406;2022-12-04T06:04:54;16.50;;;10.90;;
4389;SDS011;2209;48.982;8.406;2022-12-04T06:07:16;19.53;;;11.83;;
4389;SDS011;2209;48.982;8.406;2022-12-04T06:09:40;18.43;;;11.47;;
4389;SDS011;2209;48.982;8.406;2022-12-04T06:12:02;15.70;;;10.67;;
4389;SDS011;2209;48.982;8.406;2022-12-04T06:14:25;18.67;;;10.70;;
4389;SDS011;2209;48.982;8.406;2022-12-04T06:16:47;18.47;;;11.10;;
4389;SDS011;2209;48.982;8.406;2022-12-04T06:19:10;15.13;;;10.50;;
4389;SDS011;2209;48.982;8.406;2022-12-04T06:21:34;19.87;;;12.33;;
4389;SDS011;2209;48.982;8.406;2022-12-04T06:23:58;17.33;;;11.00;;
4389;SDS011;2209;48.982;8.406;2022-12-04T06:26:21;17.93;;;11.23;;
4389;SDS011;2209;48.982;8.406;2022-12-04T06:28:44;19.60;;;12.37;;
4389;SDS011;2209;48.982;8.406;2022-12-04T06:31:08;21.87;;;11.73;;
4389;SDS011;2209;48.982;8.406;2022-12-04T06:33:31;17.27;;;11.20;;
4389;SDS011;2209;48.982;8.406;2022-12-04T06:35:57;18.30;;;11.40;;
4389;SDS011;2209;48.982;8.406;2022-12-04T06:38:20;18.03;;;11.83;;
4389;SDS011;2209;48.982;8.406;2022-12-04T06:40:42;19.23;;;11.57;;
4389;SDS011;2209;48.982;8.406;2022-12-04T06:43:06;22.47;;;12.60;;
4389;SDS011;2209;48.982;8.406;2022-12-04T06:45:28;17.40;;;10.97;;
4389;SDS011;2209;48.982;8.406;2022-12-04T06:47:50;18.73;;;12.40;;
4389;SDS011;2209;48.982;8.406;2022-12-04T06:50:12;22.50;;;13.17;;
4389;SDS011;2209;48.982;8.406;2022-12-04T06:52:34;17.40;;;11.73;;
4389;SDS011;2209;48.982;8.406;2022-12-04T06:54:57;17.47;;;12.37;;
4389;SDS011;2209;48.982;8.406;2022-12-04T06:57:19;20.63;;;11.93;;
4389;SDS011;2209;48.982;8.406;2022-12-04T06:59:43;17.90;;;11.67;;
4389;SDS011;2209;48.982;8.406;2022-12-04T07:02:05;22.43;;;11.50;;
4389;SDS011;2209;48.982;8.406;2022-12-04T07:04:27;16.97;;;10.80;;
4389;SDS011;2209;48.982;8.406;2022-12-04T07:06:49;20.60;;;12.93;;
4389;SDS011;2209;48.982;8.406;2022-12-04T07:09:12;17.97;;;11.10;;
4389;SDS011;2209;48.982;8.406;2022-12-04T07:11:36;17.37;;;12.30;;
4389;SDS011;2209;48.982;8.406;2022-12-04T07:13:59;19.17;;;11.27;;
4389;SDS011;2209;48.982;8.406;2022-12-04T07:16:23;17.57;;;11.73;;
4389;SDS011;2209;48.982;8.406;2022-12-04T07:18:46;17.83;;;12.37;;
4389;SDS011;2209;48.982;8.406;2022-12-04T07:21:10;17.77;;;11.90;;
4389;SDS011;2209;48.982;8.406;2022-12-04T07:23:35;20.97;;;12.07;;
4389;SDS011;2209;48.982;8.406;2022-12-04T07:25:57;20.17;;;11.33;;
4389;SDS011;2209;48.982;8.406;2022-12-04T07:28:24;21.23;;;12.03;;
4389;SDS011;2209;48.982;8.406;2022-12-04T07:30:46;16.07;;;11.00;;
4389;SDS011;2209;48.982;8.406;2022-12-04T07:33:10;18.30;;;12.23;;
4389;SDS011;2209;48.982;8.406;2022-12-04T07:35:32;23.97;;;11.50;;
4389;SDS011;2209;48.982;8.406;2022-12-04T07:37:54;17.23;;;11.60;;
4389;SDS011;2209;48.982;8.406;2022-12-04T07:40:16;20.00;;;12.20;;
4389;SDS011;2209;48.982;8.406;2022-12-04T07:42:38;19.40;;;12.00;;
4389;SDS011;2209;48.982;8.406;2022-12-04T07:45:01;19.20;;;12.20;;
4389;SDS011;2209;48.982;8.406;2022-12-04T07:47:23;17.73;;;11.20;;
4389;SDS011;2209;48.982;8.406;2022-12-04T07:49:46;15.57;;;9.87;;
4389;SDS011;2209;48.982;8.406;2022-12-04T07:52:08;21.90;;;11.90;;
4389;SDS011;2209;48.982;8.406;2022-12-04T07:54:31;24.00;;;12.33;;
4389;SDS011;2209;48.982;8.406;2022-12-04T07:56:53;19.60;;;12.70;;
4389;SDS011;2209;48.982;8.406;2022-12-04T07:59:15;18.13;;;12.13;;
4389;SDS011;2209;48.982;8.406;2022-12-04T08:01:37;18.10;;;11.77;;
4389;SDS011;2209;48.982;8.406;2022-12-04T08:03:59;18.97;;;11.03;;
4389;SDS011;2209;48.982;8.406;2022-12-04T08:06:25;19.60;;;11.57;;
4389;SDS011;2209;48.982;8.406;2022-12-04T08:08:48;20.90;;;11.77;;
4389;SDS011;2209;48.982;8.406;2022-12-04T08:11:13;21.87;;;12.73;;
4389;SDS011;2209;48.982;8.406;2022-12-04T08:13:36;17.03;;;11.47;;
4389;SDS011;2209;48.982;8.406;2022-12-04T08:19:16;17.87;;;11.03;;
4389;SDS011;2209;48.982;8.406;2022-12-04T08:21:40;25.30;;;12.23;;
4389;SDS011;2209;48.982;8.406;2022-12-04T08:24:02;22.20;;;12.77;;
4389;SDS011;2209;48.982;8.406;2022-12-04T08:26:28;17.93;;;12.10;;
4389;SDS011;2209;48.982;8.406;2022-12-04T08:28:54;18.80;;;11.20;;
4389;SDS011;2209;48.982;8.406;2022-12-04T08:31:19;23.13;;;12.33;;
4389;SDS011;2209;48.982;8.406;2022-12-04T08:33:43;17.80;;;12.40;;
4389;SDS011;2209;48.982;8.406;2022-12-04T08:36:07;20.93;;;11.73;;
4389;SDS011;2209;48.982;8.406;2022-12-04T08:38:33;19.50;;;11.63;;
4389;SDS011;2209;48.982;8.406;2022-12-04T08:40:58;22.33;;;13.20;;
4389;SDS011;2209;48.982;8.406;2022-12-04T08:43:21;17.27;;;10.97;;
4389;SDS011;2209;48.982;8.406;2022-12-04T08:45:44;19.10;;;11.97;;
4389;SDS011;2209;48.982;8.406;2022-12-04T08:48:16;20.60;;;11.70;;
4389;SDS011;2209;48.982;8.406;2022-12-04T08:50:43;17.27;;;11.60;;
4389;SDS011;2209;48.982;8.406;2022-12-04T08:53:05;19.23;;;13.10;;
4389;SDS011;2209;48.982;8.406;2022-12-04T08:55:29;20.87;;;13.50;;
4389;SDS011;2209;48.982;8.406;2022-12-04T08:57:52;20.57;;;12.77;;
4389;SDS011;2209;48.982;8.406;2022-12-04T09:00:15;21.70;;;13.00;;
4389;SDS011;2209;48.982;8.406;2022-12-04T09:02:38;21.67;;;12.40;;
4389;SDS011;2209;48.982;8.406;2022-12-04T09:05:01;19.53;;;12.97;;
4389;SDS011;2209;48.982;8.406;2022-12-04T09:07:24;20.83;;;12.50;;
4389;SDS011;2209;48.982;8.406;2022-12-04T09:09:46;20.43;;;12.37;;
4389;SDS011;2209;48.982;8.406;2022-12-04T09:12:11;23.50;;;13.47;;
4389;SDS011;2209;48.982;8.406;2022-12-04T09:14:34;17.50;;;11.80;;
4389;SDS011;2209;48.982;8.406;2022-12-04T09:16:58;17.60;;;11.53;;
4389;SDS011;2209;48.982;8.406;2022-12-04T09:19:21;19.13;;;12.70;;
4389;SDS011;2209;48.982;8.406;2022-12-04T09:21:44;22.80;;;12.70;;
4389;SDS011;2209;48.982;8.406;2022-12-04T09:24:07;21.90;;;11.57;;
4389;SDS011;2209;48.982;8.406;2022-12-04T09:26:30;19.97;;;11.97;;
4389;SDS011;2209;48.982;8.406;2022-12-04T09:28:56;20.10;;;11.97;;
4389;SDS011;2209;48.982;8.406;2022-12-04T09:31:21;21.40;;;13.00;;
4389;SDS011;2209;48.982;8.406;2022-12-04T09:33:44;21.13;;;12.27;;
4389;SDS011;2209;48.982;8.406;2022-12-04T09:36:26;19.73;;;11.47;;
4389;SDS011;2209;48.982;8.406;2022-12-04T09:38:59;21.27;;;13.00;;
4389;SDS011;2209;48.982;8.406;2022-12-04T09:41:26;20.20;;;12.83;;
4389;SDS011;2209;48.982;8.406;2022-12-04T09:44:17;21.70;;;13.23;;
4389;SDS011;2209;48.982;8.406;2022-12-04T09:46:46;20.53;;;11.67;;
4389;SDS011;2209;48.982;8.406;2022-12-04T09:49:15;22.13;;;13.50;;
4389;SDS011;2209;48.982;8.406;2022-12-04T09:51:42;20.73;;;12.87;;
4389;SDS011;2209;48.982;8.406;2022-12-04T09:54:06;17.97;;;11.60;;
4389;SDS011;2209;48.982;8.406;2022-12-04T09:56:51;22.73;;;12.37;;
4389;SDS011;2209;48.982;8.406;2022-12-04T09:59:18;23.37;;;13.73;;
4389;SDS011;2209;48.982;8.406;2022-12-04T10:01:45;20.70;;;12.33;;
4389;SDS011;2209;48.982;8.406;2022-12-04T10:04:10;20.97;;;13.33;;
4389;SDS011;2209;48.982;8.406;2022-12-04T10:06:35;20.43;;;12.43;;
4389;SDS011;2209;48.982;8.406;2022-12-04T10:09:06;20.50;;;13.30;;
4389;SDS011;2209;48.982;8.406;2022-12-04T10:11:37;21.37;;;12.40;;
4389;SDS011;2209;48.982;8.406;2022-12-04T10:14:17;22.23;;;13.90;;
4389;SDS011;2209;48.982;8.406;2022-12-04T10:17:10;19.17;;;13.13;;
4389;SDS011;2209;48.982;8.406;2022-12-04T10:19:43;19.40;;;11.97;;
4389;SDS011;2209;48.982;8.406;2022-12-04T10:22:11;25.97;;;13.40;;
4389;SDS011;2209;48.982;8.406;2022-12-04T10:24:40;18.93;;;12.70;;
4389;SDS011;2209;48.982;8.406;2022-12-04T10:27:08;24.73;;;14.03;;
4389;SDS011;2209;48.982;8.406;2022-12-04T10:29:36;15.70;;;11.47;;
4389;SDS011;2209;48.982;8.406;2022-12-04T10:32:02;22.37;;;12.97;;
4389;SDS011;2209;48.982;8.406;2022-12-04T10:34:34;21.80;;;13.50;;
4389;SDS011;2209;48.982;8.406;2022-12-04T10:36:58;18.90;;;12.17;;
4389;SDS011;2209;48.982;8.406;2022-12-04T10:39:23;23.90;;;13.17;;
4389;SDS011;2209;48.982;8.406;2022-12-04T10:41:49;25.40;;;12.60;;
4389;SDS011;2209;48.982;8.406;2022-12-04T10:44:16;21.60;;;12.90;;
4389;SDS011;2209;48.982;8.406;2022-12-04T10:46:41;20.03;;;13.73;;
4389;SDS011;2209;48.982;8.406;2022-12-04T10:49:04;21.87;;;13.20;;
4389;SDS011;2209;48.982;8.406;2022-12-04T10:51:30;23.40;;;12.87;;
4389;SDS011;2209;48.982;8.406;2022-12-04T10:53:58;18.10;;;12.17;;
4389;SDS011;2209;48.982;8.406;2022-12-04T10:56:21;22.67;;;14.23;;
4389;SDS011;2209;48.982;8.406;2022-12-04T10:58:53;19.97;;;12.87;;
4389;SDS011;2209;48.982;8.406;2022-12-04T11:01:16;22.43;;;12.90;;
4389;SDS011;2209;48.982;8.406;2022-12-04T11:03:43;17.57;;;12.83;;
4389;SDS011;2209;48.982;8.406;2022-12-04T11:06:14;19.87;;;12.30;;
4389;SDS011;2209;48.982;8.406;2022-12-04T11:08:37;20.27;;;13.00;;
4389;SDS011;2209;48.982;8.406;2022-12-04T11:11:02;19.40;;;13.00;;
4389;SDS011;2209;48.982;8.406;2022-12-04T11:13:26;21.50;;;12.97;;
4389;SDS011;2209;48.982;8.406;2022-12-04T11:15:49;19.90;;;13.13;;
4389;SDS011;2209;48.982;8.406;2022-12-04T11:18:16;17.40;;;12.20;;
4389;SDS011;2209;48.982;8.406;2022-12-04T11:20:42;21.47;;;12.97;;
4389;SDS011;2209;48.982;8.406;2022-12-04T11:23:11;18.37;;;12.40;;
4389;SDS011;2209;48.982;8.406;2022-12-04T11:25:42;21.80;;;13.43;;
4389;SDS011;2209;48.982;8.406;2022-12-04T11:28:11;19.80;;;13.53;;
4389;SDS011;2209;48.982;8.406;2022-12-04T11:30:37;19.60;;;13.33;;
4389;SDS011;2209;48.982;8.406;2022-12-04T11:32:59;20.07;;;13.57;;
4389;SDS011;2209;48.982;8.406;2022-12-04T11:35:23;19.33;;;13.10;;
4389;SDS011;2209;48.982;8.406;2022-12-04T11:37:52;24.17;;;14.27;;
4389;SDS011;2209;48.982;8.406;2022-12-04T11:40:18;18.47;;;12.73;;
4389;SDS011;2209;48.982;8.406;2022-12-04T11:42:40;23.93;;;12.70;;
4389;SDS011;2209;48.982;8.406;2022-12-04T11:45:14;22.10;;;13.10;;
4389;SDS011;2209;48.982;8.406;2022-12-04T11:47:41;22.57;;;12.60;;
4389;SDS011;2209;48.982;8.406;2022-12-04T11:50:16;19.10;;;12.70;;
4389;SDS011;2209;48.982;8.406;2022-12-04T11:52:54;19.63;;;12.00;;
4389;SDS011;2209;48.982;8.406;2022-12-04T11:55:25;23.50;;;13.37;;
4389;SDS011;2209;48.982;8.406;2022-12-04T11:58:02;18.23;;;11.77;;
4389;SDS011;2209;48.982;8.406;2022-12-04T12:00:38;23.17;;;13.23;;
4389;SDS011;2209;48.982;8.406;2022-12-04T12:03:09;22.63;;;13.17;;
4389;SDS011;2209;48.982;8.406;2022-12-04T12:08:44;22.70;;;13.83;;
4389;SDS011;2209;48.982;8.406;2022-12-04T12:11:19;16.60;;;12.70;;
4389;SDS011;2209;48.982;8.406;2022-12-04T12:13:47;21.87;;;12.87;;
4389;SDS011;2209;48.982;8.406;2022-12-04T12:16:20;21.53;;;13.17;;
4389;SDS011;2209;48.982;8.406;2022-12-04T12:18:57;22.93;;;12.90;;
4389;SDS011;2209;48.982;8.406;2022-12-04T12:21:32;23.73;;;13.37;;
4389;SDS011;2209;48.982;8.406;2022-12-04T12:24:08;23.83;;;13.87;;
4389;SDS011;2209;48.982;8.406;2022-12-04T12:26:42;20.90;;;13.43;;
4389;SDS011;2209;48.982;8.406;2022-12-04T12:29:13;21.00;;;13.47;;
4389;SDS011;2209;48.982;8.406;2022-12-04T12:31:58;23.00;;;12.63;;
4389;SDS011;2209;48.982;8.406;2022-12-04T12:34:40;20.47;;;13.27;;
4389;SDS011;2209;48.982;8.406;2022-12-04T12:37:06;16.17;;;11.53;;
4389;SDS011;2209;48.982;8.406;2022-12-04T12:39:37;19.30;;;12.03;;
4389;SDS011;2209;48.982;8.406;2022-12-04T12:42:00;21.90;;;12.37;;
4389;SDS011;2209;48.982;8.406;2022-12-04T12:44:23;18.07;;;12.20;;
4389;SDS011;2209;48.982;8.406;2022-12-04T12:46:51;18.97;;;11.40;;
4389;SDS011;2209;48.982;8.406;2022-12-04T12:49:22;21.37;;;12.70;;
4389;SDS011;2209;48.982;8.406;2022-12-04T12:51:50;24.80;;;13.57;;
4389;SDS011;2209;48.982;8.406;2022-12-04T12:54:20;18.37;;;12.53;;
4389;SDS011;2209;48.982;8.406;2022-12-04T12:56:50;23.67;;;13.63;;
4389;SDS011;2209;48.982;8.406;2022-12-04T12:59:15;24.80;;;14.80;;
4389;SDS011;2209;48.982;8.406;2022-12-04T13:04:59;20.80;;;12.90;;
4389;SDS011;2209;48.982;8.406;2022-12-04T13:07:28;23.27;;;13.87;;
4389;SDS011;2209;48.982;8.406;2022-12-04T13:10:04;20.50;;;13.93;;
4389;SDS011;2209;48.982;8.406;2022-12-04T13:12:38;18.10;;;12.73;;
4389;SDS011;2209;48.982;8.406;2022-12-04T13:15:10;24.50;;;13.10;;
4389;SDS011;2209;48.982;8.406;2022-12-04T13:17:36;18.83;;;12.20;;
4389;SDS011;2209;48.982;8.406;2022-12-04T13:20:00;25.97;;;13.53;;
4389;SDS011;2209;48.982;8.406;2022-12-04T13:22:26;21.00;;;12.40;;
4389;SDS011;2209;48.982;8.406;2022-12-04T13:25:02;22.30;;;13.23;;
4389;SDS011;2209;48.982;8.406;2022-12-04T13:27:39;20.50;;;12.70;;
4389;SDS011;2209;48.982;8.406;2022-12-04T13:30:12;22.57;;;12.57;;
4389;SDS011;2209;48.982;8.406;2022-12-04T13:32:45;20.40;;;14.17;;
4389;SDS011;2209;48.982;8.406;2022-12-04T13:35:25;22.67;;;14.00;;
4389;SDS011;2209;48.982;8.406;2022-12-04T13:38:04;25.20;;;13.40;;
4389;SDS011;2209;48.982;8.406;2022-12-04T13:40:36;17.53;;;13.33;;
4389;SDS011;2209;48.982;8.406;2022-12-04T13:45:57;18.53;;;12.60;;
4389;SDS011;2209;48.982;8.406;2022-12-04T13:48:26;23.50;;;13.60;;
4389;SDS011;2209;48.982;8.406;2022-12-04T13:50:59;21.37;;;13.40;;
4389;SDS011;2209;48.982;8.406;2022-12-04T13:53:29;20.70;;;13.23;;
4389;SDS011;2209;48.982;8.406;2022-12-04T13:55:54;23.60;;;13.90;;
4389;SDS011;2209;48.982;8.406;2022-12-04T13:58:29;22.73;;;13.57;;
4389;SDS011;2209;48.982;8.406;2022-12-04T14:01:00;21.63;;;12.30;;
4389;SDS011;2209;48.982;8.406;2022-12-04T14:03:26;18.47;;;12.10;;
4389;SDS011;2209;48.982;8.406;2022-12-04T14:06:18;21.47;;;12.93;;
4389;SDS011;2209;48.982;8.406;2022-12-04T14:08:43;20.30;;;12.93;;
4389;SDS011;2209;48.982;8.406;2022-12-04T14:11:08;20.43;;;12.13;;
4389;SDS011;2209;48.982;8.406;2022-12-04T14:13:40;24.77;;;13.43;;
4389;SDS011;2209;48.982;8.406;2022-12-04T14:16:15;21.47;;;13.20;;
4389;SDS011;2209;48.982;8.406;2022-12-04T14:18:44;23.20;;;14.20;;
4389;SDS011;2209;48.982;8.406;2022-12-04T14:21:11;21.00;;;13.77;;
4389;SDS011;2209;48.982;8.406;2022-12-04T14:23:35;20.70;;;13.90;;
4389;SDS011;2209;48.982;8.406;2022-12-04T14:26:01;20.67;;;13.70;;
4389;SDS011;2209;48.982;8.406;2022-12-04T14:28:26;25.50;;;15.33;;
4389;SDS011;2209;48.982;8.406;2022-12-04T14:31:08;20.67;;;13.00;;
4389;SDS011;2209;48.982;8.406;2022-12-04T14:33:42;21.27;;;13.47;;
4389;SDS011;2209;48.982;8.406;2022-12-04T14:36:15;20.00;;;12.07;;
4389;SDS011;2209;48.982;8.406;2022-12-04T14:38:44;20.70;;;12.97;;
4389;SDS011;2209;48.982;8.406;2022-12-04T14:41:11;19.57;;;11.43;;
4389;SDS011;2209;48.982;8.406;2022-12-04T14:43:36;24.57;;;14.07;;
4389;SDS011;2209;48.982;8.406;2022-12-04T14:46:04;19.97;;;13.00;;
4389;SDS011;2209;48.982;8.406;2022-12-04T14:48:42;23.67;;;14.13;;
4389;SDS011;2209;48.982;8.406;2022-12-04T14:51:16;21.27;;;13.70;;
4389;SDS011;2209;48.982;8.406;2022-12-04T14:53:46;20.30;;;12.57;;
4389;SDS011;2209;48.982;8.406;2022-12-04T14:56:16;21.70;;;13.30;;
4389;SDS011;2209;48.982;8.406;2022-12-04T14:58:46;20.73;;;12.50;;